Terminal Aerodrome Forecast
Issued by NWS Cleveland, OH

Home | Current Version | Previous Version | Graphics & Text | Print | Product List | Glossary On
Versions: 1 2 3 4 5 6 7 8 9 10 11 12 13 14 15 16 17 18 19 20 21 22 23 24 25 26 27 28 29 30
000
FTUS41 KCLE 011700 RRA
TAFCLE
TAF
KCLE 011746Z 0118/0224 08008KT 3/4SM -SN BR SCT004 OVC010
     FM011900 08011KT 3SM -SN SCT006 OVC012
      TEMPO 0119/0122 1 1/2SM -SN BR OVC006
     FM012200 06015KT 1/2SM SN OVC004
      TEMPO 0200/0204 1SM -SNPL
     FM020500 05012G18KT 1SM -SN OVC005
     FM021200 34015G25KT 2SM -SN BLSN OVC006=

USA.gov is the U.S. government's official web portal to all federal, state and local government web resources and services.